createdAt,value
2019-01-27T00:00:14.863Z,3.23
2019-01-27T00:02:42.213Z,3.30
2019-01-27T00:05:09.716Z,3.73
2019-01-27T00:07:37.007Z,3.33
2019-01-27T00:10:04.400Z,1.43
2019-01-27T00:12:31.655Z,3.23
2019-01-27T00:14:59.533Z,3.23
2019-01-27T00:17:46.366Z,3.23
2019-01-27T00:20:13.998Z,3.20
2019-01-27T00:23:00.738Z,3.10
2019-01-27T00:25:27.982Z,2.77
2019-01-27T00:27:55.614Z,2.37
2019-01-27T00:30:23.432Z,2.50
2019-01-27T00:32:50.695Z,2.33
2019-01-27T00:35:18.044Z,2.23
2019-01-27T00:37:45.407Z,2.60
2019-01-27T00:40:12.897Z,3.30
2019-01-27T00:42:40.699Z,2.40
2019-01-27T00:45:08.640Z,3.93
2019-01-27T00:47:35.896Z,3.07
2019-01-27T00:50:03.852Z,3.17
2019-01-27T00:52:31.150Z,2.63
2019-01-27T00:54:58.429Z,2.53
2019-01-27T00:57:25.778Z,2.53
2019-01-27T00:59:53.059Z,2.97
2019-01-27T01:02:20.311Z,2.23
2019-01-27T01:04:47.586Z,2.80
2019-01-27T01:07:34.307Z,2.57
2019-01-27T01:10:01.925Z,2.80
2019-01-27T01:12:29.716Z,1.90
2019-01-27T01:14:57.005Z,1.47
2019-01-27T01:17:24.340Z,2.27
2019-01-27T01:19:51.641Z,1.70
2019-01-27T01:22:18.892Z,2.10
2019-01-27T01:24:46.124Z,1.77
2019-01-27T01:27:13.697Z,2.10
2019-01-27T01:29:41.306Z,1.90
2019-01-27T01:32:08.542Z,1.57
2019-01-27T01:34:36.318Z,1.20
2019-01-27T01:37:03.812Z,2.60
2019-01-27T01:39:31.064Z,1.97
2019-01-27T01:41:59.267Z,2.23
2019-01-27T01:44:26.802Z,2.10
2019-01-27T01:46:54.298Z,1.93
2019-01-27T01:49:21.682Z,2.13
2019-01-27T01:52:08.768Z,2.00
2019-01-27T01:54:36.129Z,1.80
2019-01-27T01:57:03.497Z,1.90
2019-01-27T01:59:30.770Z,1.93
2019-01-27T02:01:58.052Z,1.80
2019-01-27T02:04:44.865Z,1.50
2019-01-27T02:07:12.138Z,1.67
2019-01-27T02:09:39.645Z,1.33
2019-01-27T02:12:06.884Z,1.60
2019-01-27T02:14:34.153Z,1.90
2019-01-27T02:17:01.417Z,1.37
2019-01-27T02:19:28.942Z,1.03
2019-01-27T02:21:56.474Z,1.37
2019-01-27T02:24:23.743Z,1.80
2019-01-27T02:26:51.006Z,1.27
2019-01-27T02:29:18.523Z,1.80
2019-01-27T02:31:45.836Z,1.67
2019-01-27T02:34:13.189Z,1.83
2019-01-27T02:36:40.433Z,1.53
2019-01-27T02:39:08.480Z,1.50
2019-01-27T02:41:35.733Z,1.10
2019-01-27T02:44:22.847Z,1.30
2019-01-27T02:46:50.096Z,1.47
2019-01-27T02:49:17.329Z,1.33
2019-01-27T02:51:44.591Z,1.40
2019-01-27T02:54:11.879Z,1.10
2019-01-27T02:56:39.117Z,1.53
2019-01-27T02:59:06.365Z,1.07
2019-01-27T03:01:33.634Z,1.60
2019-01-27T03:04:00.978Z,1.57
2019-01-27T03:06:35.719Z,1.70
2019-01-27T03:09:16.275Z,1.37
2019-01-27T03:11:47.276Z,1.10
2019-01-27T03:14:15.403Z,1.77
2019-01-27T03:16:42.895Z,1.57
2019-01-27T03:19:10.144Z,1.57
2019-01-27T03:21:37.422Z,2.00
2019-01-27T03:24:04.776Z,1.50
2019-01-27T03:26:32.135Z,1.10
2019-01-27T03:28:59.422Z,1.77
2019-01-27T03:31:26.759Z,1.20
2019-01-27T03:33:54.295Z,1.83
2019-01-27T03:36:21.902Z,1.80
2019-01-27T03:38:49.442Z,1.30
2019-01-27T03:41:17.226Z,1.07
2019-01-27T03:44:04.069Z,1.63
2019-01-27T03:46:31.291Z,1.47
2019-01-27T03:48:58.543Z,1.30
2019-01-27T03:51:26.091Z,1.40
2019-01-27T03:53:53.342Z,1.23
2019-01-27T03:56:20.711Z,1.53
2019-01-27T03:58:48.054Z,1.17
2019-01-27T04:01:15.307Z,1.00
2019-01-27T04:03:42.836Z,1.30
2019-01-27T04:06:10.097Z,1.40
2019-01-27T04:08:37.336Z,0.90
2019-01-27T04:11:04.599Z,1.83
2019-01-27T04:13:31.968Z,1.43
2019-01-27T04:15:59.376Z,1.33
2019-01-27T04:18:26.627Z,1.47
2019-01-27T04:20:53.869Z,1.03
2019-01-27T04:23:21.111Z,1.00
2019-01-27T04:25:48.481Z,1.20
2019-01-27T04:28:15.834Z,1.27
2019-01-27T04:30:43.439Z,2.00
2019-01-27T04:33:11.140Z,1.03
2019-01-27T04:35:38.376Z,1.53
2019-01-27T04:38:05.873Z,1.13
2019-01-27T04:40:33.411Z,1.10
2019-01-27T04:43:00.928Z,1.07
2019-01-27T04:45:31.698Z,0.70
2019-01-27T04:47:59.474Z,1.10
2019-01-27T04:50:26.973Z,1.07
2019-01-27T04:52:54.236Z,0.90
2019-01-27T04:55:21.520Z,0.83
2019-01-27T04:57:48.847Z,0.93
2019-01-27T05:00:17.204Z,0.60
2019-01-27T05:02:48.608Z,1.00
2019-01-27T05:05:15.860Z,1.13
2019-01-27T05:07:43.267Z,1.20
2019-01-27T05:10:10.571Z,1.20
2019-01-27T05:12:37.922Z,0.97
2019-01-27T05:15:06.528Z,0.70
2019-01-27T05:17:33.774Z,1.17
2019-01-27T05:20:01.035Z,1.77
2019-01-27T05:22:28.857Z,1.43
2019-01-27T05:24:56.267Z,1.83
2019-01-27T05:27:23.512Z,0.70
2019-01-27T05:29:50.793Z,1.00
2019-01-27T05:32:18.396Z,0.83
2019-01-27T05:34:45.667Z,1.17
2019-01-27T05:37:13.273Z,1.20
2019-01-27T05:39:40.782Z,2.07
2019-01-27T05:42:27.785Z,0.90
2019-01-27T05:44:55.393Z,1.20
2019-01-27T05:47:22.913Z,1.10
2019-01-27T05:49:50.183Z,1.33
2019-01-27T05:52:17.448Z,0.97
2019-01-27T05:54:44.808Z,0.77
2019-01-27T05:57:12.068Z,1.23
2019-01-27T05:59:39.334Z,1.17
2019-01-27T06:02:06.581Z,0.97
2019-01-27T06:04:34.148Z,1.03
2019-01-27T06:07:01.766Z,1.80
2019-01-27T06:09:29.131Z,1.50
2019-01-27T06:11:56.702Z,1.40
2019-01-27T06:14:23.947Z,1.17
2019-01-27T06:16:51.200Z,1.13
2019-01-27T06:19:18.467Z,0.90
2019-01-27T06:21:45.720Z,1.40
2019-01-27T06:24:13.014Z,1.30
2019-01-27T06:26:40.256Z,1.00
2019-01-27T06:29:07.777Z,1.03
2019-01-27T06:31:35.078Z,1.60
2019-01-27T06:34:05.843Z,1.60
2019-01-27T06:36:33.090Z,1.03
2019-01-27T06:39:00.638Z,1.30
2019-01-27T06:41:28.177Z,1.20
2019-01-27T06:43:55.562Z,1.50
2019-01-27T06:46:22.904Z,1.23
2019-01-27T06:48:50.271Z,1.37
2019-01-27T06:51:17.615Z,1.80
2019-01-27T06:53:45.113Z,0.87
2019-01-27T06:56:12.367Z,1.30
2019-01-27T06:59:02.876Z,1.00
2019-01-27T07:01:43.747Z,1.90
2019-01-27T07:04:18.620Z,1.57
2019-01-27T07:07:14.453Z,1.50
2019-01-27T07:10:01.658Z,1.40
2019-01-27T07:12:54.355Z,1.23
2019-01-27T07:15:59.138Z,2.27
2019-01-27T07:18:38.743Z,1.40
2019-01-27T07:21:26.951Z,1.50
2019-01-27T07:24:14.525Z,1.77
2019-01-27T07:27:09.995Z,1.50
2019-01-27T07:29:56.202Z,1.20
2019-01-27T07:32:48.737Z,1.10
2019-01-27T07:35:38.624Z,2.17
2019-01-27T07:38:18.088Z,1.70
2019-01-27T07:40:54.669Z,1.63
2019-01-27T07:43:37.452Z,1.70
2019-01-27T07:46:10.643Z,1.70
2019-01-27T07:49:06.577Z,1.93
2019-01-27T07:51:50.842Z,2.43
2019-01-27T07:54:39.322Z,2.10
2019-01-27T07:57:14.428Z,1.90
2019-01-27T08:00:04.055Z,1.93
2019-01-27T08:02:56.872Z,1.17
2019-01-27T08:05:30.015Z,2.17
2019-01-27T08:08:09.305Z,1.60
2019-01-27T08:10:53.988Z,1.30
2019-01-27T08:13:43.741Z,1.67
2019-01-27T08:16:27.161Z,2.10
2019-01-27T08:19:28.555Z,1.43
2019-01-27T08:22:11.554Z,1.60
2019-01-27T08:25:10.595Z,2.23
2019-01-27T08:27:59.700Z,1.93
2019-01-27T08:30:45.282Z,1.30
2019-01-27T08:33:44.186Z,1.70
2019-01-27T08:36:31.351Z,1.60
2019-01-27T08:39:09.071Z,1.27
2019-01-27T08:41:54.176Z,0.93
2019-01-27T08:44:34.733Z,1.40
2019-01-27T08:47:02.820Z,0.87
2019-01-27T08:49:30.058Z,1.30
2019-01-27T08:51:57.619Z,1.57
2019-01-27T08:54:24.973Z,1.30
2019-01-27T08:56:52.224Z,1.60
2019-01-27T08:59:19.493Z,1.80
2019-01-27T09:02:04.956Z,1.80
2019-01-27T09:04:51.745Z,1.97
2019-01-27T09:07:50.057Z,1.97
2019-01-27T09:10:36.429Z,2.03
2019-01-27T09:13:14.180Z,2.03
2019-01-27T09:15:52.198Z,1.97
2019-01-27T09:18:30.652Z,1.57
2019-01-27T09:21:22.920Z,2.00
2019-01-27T09:24:06.940Z,1.70
2019-01-27T09:26:43.226Z,2.30
2019-01-27T09:29:28.444Z,2.07
2019-01-27T09:32:15.220Z,1.90
2019-01-27T09:35:00.454Z,1.80
2019-01-27T09:37:56.483Z,1.80
2019-01-27T09:40:49.148Z,2.47
2019-01-27T09:43:26.368Z,1.90
2019-01-27T09:46:19.638Z,1.40
2019-01-27T09:48:56.983Z,1.70
2019-01-27T09:51:30.459Z,1.77
2019-01-27T09:57:34.710Z,1.00
2019-01-27T10:00:08.901Z,1.60
2019-01-27T10:03:07.566Z,1.37
2019-01-27T10:05:42.515Z,1.57
2019-01-27T10:08:19.438Z,1.40
2019-01-27T10:11:18.575Z,2.30
2019-01-27T10:14:10.212Z,1.43
2019-01-27T10:16:53.476Z,1.30
2019-01-27T10:19:43.513Z,1.83
2019-01-27T10:22:28.158Z,1.07
2019-01-27T10:25:08.049Z,1.20
2019-01-27T10:27:45.493Z,1.40
2019-01-27T10:30:36.156Z,1.27
2019-01-27T10:33:18.974Z,1.07
2019-01-27T10:36:05.753Z,1.50
2019-01-27T10:38:40.923Z,1.53
2019-01-27T10:41:14.284Z,1.40
2019-01-27T10:43:52.737Z,1.03
2019-01-27T10:46:48.722Z,1.20
2019-01-27T10:49:35.365Z,1.47
2019-01-27T10:55:48.124Z,1.30
2019-01-27T10:58:31.256Z,1.30
2019-01-27T11:01:30.061Z,1.80
2019-01-27T11:04:13.507Z,2.00
2019-01-27T11:06:47.942Z,2.23
2019-01-27T11:09:22.078Z,2.80
2019-01-27T11:12:11.481Z,2.23
2019-01-27T11:15:01.271Z,1.87
2019-01-27T11:17:53.926Z,1.70
2019-01-27T11:20:49.619Z,1.30
2019-01-27T11:23:39.179Z,1.00
2019-01-27T11:26:25.217Z,1.10
2019-01-27T11:29:10.138Z,0.90
2019-01-27T11:31:59.763Z,0.80
2019-01-27T11:34:43.800Z,0.70
2019-01-27T11:37:22.411Z,0.90
2019-01-27T11:40:11.924Z,0.70
2019-01-27T11:43:07.830Z,0.97
2019-01-27T11:45:57.500Z,1.77
2019-01-27T11:48:38.334Z,2.17
2019-01-27T11:51:13.976Z,2.83
2019-01-27T11:53:41.603Z,3.13
2019-01-27T11:56:08.891Z,2.50
2019-01-27T11:58:36.186Z,3.53
2019-01-27T12:01:05.080Z,2.20
2019-01-27T12:03:32.324Z,2.40
2019-01-27T12:05:59.682Z,2.13
2019-01-27T12:08:28.048Z,1.50
2019-01-27T12:10:55.779Z,2.20
2019-01-27T12:13:23.411Z,2.23
2019-01-27T12:15:50.916Z,3.93
2019-01-27T12:18:18.291Z,2.60
2019-01-27T12:20:45.827Z,1.53
2019-01-27T12:23:13.088Z,1.83
2019-01-27T12:25:40.433Z,2.70
2019-01-27T12:28:08.004Z,2.83
2019-01-27T12:30:35.569Z,1.73
2019-01-27T12:33:02.912Z,2.00
2019-01-27T12:35:30.406Z,2.80
2019-01-27T12:37:57.704Z,1.60
2019-01-27T12:40:24.960Z,1.93
2019-01-27T12:42:52.482Z,1.53
2019-01-27T12:45:19.951Z,1.90
2019-01-27T12:47:47.236Z,1.47
2019-01-27T12:50:15.041Z,1.67
2019-01-27T12:52:42.429Z,1.80
2019-01-27T12:55:10.374Z,1.50
2019-01-27T12:57:37.695Z,2.17
2019-01-27T13:00:08.856Z,1.67
2019-01-27T13:02:37.028Z,1.90
2019-01-27T13:05:04.605Z,3.03
2019-01-27T13:07:31.883Z,1.70
2019-01-27T13:09:59.143Z,1.70
2019-01-27T13:12:26.420Z,2.57
2019-01-27T13:14:53.787Z,2.60
2019-01-27T13:17:21.036Z,1.93
2019-01-27T13:19:53.709Z,1.93
2019-01-27T13:22:18.002Z,2.10
2019-01-27T13:24:45.269Z,2.80
2019-01-27T13:27:12.543Z,2.13
2019-01-27T13:29:39.832Z,3.63
2019-01-27T13:32:07.185Z,2.00
2019-01-27T13:34:34.437Z,3.97
2019-01-27T13:37:01.720Z,3.17
2019-01-27T13:39:29.031Z,2.53
2019-01-27T13:41:57.012Z,2.43
2019-01-27T13:44:24.428Z,4.13
2019-01-27T13:46:51.730Z,3.37
2019-01-27T13:49:19.089Z,2.57
2019-01-27T13:51:46.367Z,3.27
2019-01-27T13:54:13.619Z,2.97
2019-01-27T13:56:40.878Z,2.43
2019-01-27T13:59:08.142Z,3.67
2019-01-27T14:01:35.497Z,2.37
2019-01-27T14:04:02.772Z,2.63
2019-01-27T14:06:30.058Z,2.90
2019-01-27T14:08:57.295Z,2.27
2019-01-27T14:11:24.560Z,2.60
2019-01-27T14:13:51.924Z,2.60
2019-01-27T14:16:19.204Z,2.03
2019-01-27T14:18:46.548Z,3.03
2019-01-27T14:21:16.587Z,1.97
2019-01-27T14:23:43.023Z,1.33
2019-01-27T14:26:10.553Z,2.10
2019-01-27T14:28:38.234Z,3.07
2019-01-27T14:31:05.520Z,1.53
2019-01-27T14:33:32.873Z,1.63
2019-01-27T14:36:00.240Z,2.03
2019-01-27T14:38:27.595Z,1.50
2019-01-27T14:40:55.108Z,2.53
2019-01-27T14:43:22.389Z,2.10
2019-01-27T14:45:49.651Z,2.47
2019-01-27T14:48:17.002Z,1.97
2019-01-27T14:50:45.424Z,1.90
2019-01-27T14:53:12.960Z,1.77
2019-01-27T14:55:40.361Z,1.63
2019-01-27T14:58:07.615Z,1.90
2019-01-27T15:00:36.862Z,1.87
2019-01-27T15:03:04.453Z,1.43
2019-01-27T15:05:31.785Z,2.00
2019-01-27T15:08:00.308Z,1.73
2019-01-27T15:10:27.710Z,1.47
2019-01-27T15:12:55.240Z,1.17
2019-01-27T15:15:22.986Z,1.50
2019-01-27T15:17:50.688Z,1.47
2019-01-27T15:20:19.630Z,1.43
2019-01-27T15:22:46.894Z,1.40
2019-01-27T15:25:14.158Z,1.60
2019-01-27T15:27:41.418Z,1.47
2019-01-27T15:30:11.600Z,2.07
2019-01-27T15:32:38.993Z,1.77
2019-01-27T15:35:07.040Z,1.43
2019-01-27T15:37:34.389Z,1.40
2019-01-27T15:40:01.943Z,1.50
2019-01-27T15:42:29.286Z,1.93
2019-01-27T15:44:56.561Z,1.20
2019-01-27T15:47:24.154Z,1.70
2019-01-27T15:49:51.425Z,2.00
2019-01-27T15:52:18.922Z,1.47
2019-01-27T15:54:46.281Z,1.50
2019-01-27T15:57:13.582Z,1.40
2019-01-27T15:59:40.847Z,2.13
2019-01-27T16:02:08.518Z,1.80
2019-01-27T16:04:35.864Z,1.83
2019-01-27T16:07:03.435Z,1.57
2019-01-27T16:09:30.751Z,1.30
2019-01-27T16:11:58.133Z,2.10
2019-01-27T16:14:25.786Z,1.30
2019-01-27T16:16:53.157Z,1.77
2019-01-27T16:19:20.446Z,1.40
2019-01-27T16:21:47.866Z,1.70
2019-01-27T16:24:20.518Z,1.30
2019-01-27T16:26:47.812Z,1.30
2019-01-27T16:29:17.287Z,1.50
2019-01-27T16:31:51.841Z,1.63
2019-01-27T16:34:36.660Z,1.70
2019-01-27T16:37:04.029Z,1.60
2019-01-27T16:39:31.609Z,1.83
2019-01-27T16:41:59.240Z,1.87
2019-01-27T16:44:26.582Z,1.80
2019-01-27T16:46:53.904Z,1.80
2019-01-27T16:49:21.152Z,1.67
2019-01-27T16:51:49.256Z,2.33
2019-01-27T16:54:16.806Z,1.47
2019-01-27T16:56:44.319Z,1.70
2019-01-27T16:59:11.595Z,1.97
2019-01-27T17:01:38.841Z,1.87
2019-01-27T17:04:06.167Z,3.57
2019-01-27T17:06:33.507Z,2.33
2019-01-27T17:09:00.856Z,2.20
2019-01-27T17:11:28.397Z,1.93
2019-01-27T17:13:55.860Z,2.40
2019-01-27T17:16:23.536Z,2.00
2019-01-27T17:18:51.805Z,2.13
2019-01-27T17:21:19.173Z,3.00
2019-01-27T17:23:46.443Z,2.40
2019-01-27T17:26:13.764Z,2.37
2019-01-27T17:28:41.392Z,1.70
2019-01-27T17:31:08.766Z,1.73
2019-01-27T17:33:36.032Z,0.90
2019-01-27T17:36:03.717Z,2.50
2019-01-27T17:38:50.598Z,1.50
2019-01-27T17:41:37.467Z,2.33
2019-01-27T17:44:04.718Z,1.97
2019-01-27T17:46:32.063Z,2.20
2019-01-27T17:48:59.347Z,2.13
2019-01-27T17:51:26.969Z,2.87
2019-01-27T17:53:57.233Z,3.40
2019-01-27T17:56:24.587Z,2.23
2019-01-27T17:59:20.273Z,2.53
2019-01-27T18:02:26.480Z,2.30
2019-01-27T18:05:31.418Z,2.50
2019-01-27T18:08:08.864Z,2.67
2019-01-27T18:11:13.657Z,2.80
2019-01-27T18:13:52.204Z,2.63
2019-01-27T18:16:20.259Z,3.23
2019-01-27T18:18:49.288Z,3.50
2019-01-27T18:21:16.967Z,3.23
2019-01-27T18:23:44.711Z,3.13
2019-01-27T18:26:12.082Z,1.80
2019-01-27T18:28:39.434Z,2.70
2019-01-27T18:31:07.018Z,2.93
2019-01-27T18:33:34.656Z,2.00
2019-01-27T18:36:01.895Z,2.07
2019-01-27T18:38:29.167Z,2.90
2019-01-27T18:40:56.725Z,2.87
2019-01-27T18:43:23.997Z,2.27
2019-01-27T18:45:51.341Z,2.03
2019-01-27T18:48:18.704Z,2.23
2019-01-27T18:50:46.104Z,2.47
2019-01-27T18:53:27.920Z,2.00
2019-01-27T18:56:07.891Z,2.33
2019-01-27T18:58:46.489Z,2.20
2019-01-27T19:01:36.013Z,2.27
2019-01-27T19:04:24.512Z,2.40
2019-01-27T19:07:03.846Z,2.20
2019-01-27T19:10:02.479Z,1.60
2019-01-27T19:12:38.855Z,2.10
2019-01-27T19:15:32.502Z,2.23
2019-01-27T19:18:19.392Z,2.37
2019-01-27T19:21:15.352Z,2.37
2019-01-27T19:24:10.975Z,2.70
2019-01-27T19:26:47.121Z,3.53
2019-01-27T19:29:37.201Z,3.87
2019-01-27T19:32:30.011Z,2.40
2019-01-27T19:35:22.649Z,2.73
2019-01-27T19:38:09.671Z,3.00
2019-01-27T19:40:41.441Z,2.60
2019-01-27T19:43:26.862Z,3.00
2019-01-27T19:46:02.072Z,3.77
2019-01-27T19:48:44.646Z,1.50
2019-01-27T19:54:45.462Z,2.40
2019-01-27T19:57:29.736Z,2.93
2019-01-27T20:00:25.574Z,2.87
2019-01-27T20:03:18.401Z,2.80
2019-01-27T20:06:03.902Z,3.13
2019-01-27T20:08:41.664Z,2.47
2019-01-27T20:11:31.301Z,2.33
2019-01-27T20:14:26.274Z,1.73
2019-01-27T20:17:15.587Z,1.87
2019-01-27T20:20:11.264Z,3.43
2019-01-27T20:22:59.136Z,3.03
2019-01-27T20:25:35.423Z,2.50
2019-01-27T20:28:41.674Z,2.37
2019-01-27T20:31:20.920Z,2.27
2019-01-27T20:33:59.737Z,2.50
2019-01-27T20:36:46.484Z,2.90
2019-01-27T20:39:33.239Z,3.00
2019-01-27T20:42:10.038Z,2.80
2019-01-27T20:44:46.237Z,2.03
2019-01-27T20:47:45.152Z,2.57
2019-01-27T20:50:19.064Z,1.83
2019-01-27T20:52:57.573Z,1.53
2019-01-27T20:55:42.755Z,2.40
2019-01-27T20:58:23.518Z,2.20
2019-01-27T21:01:19.224Z,1.97
2019-01-27T21:04:02.047Z,2.13
2019-01-27T21:06:42.720Z,2.70
2019-01-27T21:09:35.663Z,1.03
2019-01-27T21:12:16.228Z,2.00
2019-01-27T21:15:01.634Z,2.63
2019-01-27T21:17:54.042Z,1.43
2019-01-27T21:20:22.360Z,2.40
2019-01-27T21:22:49.927Z,2.27
2019-01-27T21:25:17.334Z,2.90
2019-01-27T21:27:44.688Z,2.10
2019-01-27T21:30:12.872Z,1.80
2019-01-27T21:32:40.247Z,2.97
2019-01-27T21:35:08.326Z,2.03
2019-01-27T21:37:55.089Z,2.33
2019-01-27T21:40:22.426Z,2.27
2019-01-27T21:42:49.721Z,2.47
2019-01-27T21:45:17.076Z,2.53
2019-01-27T21:47:44.659Z,2.33
2019-01-27T21:50:31.505Z,2.10
2019-01-27T21:53:18.228Z,2.40
2019-01-27T21:55:45.856Z,2.53
2019-01-27T21:58:13.426Z,2.20
2019-01-27T22:00:40.661Z,1.90
2019-01-27T22:03:07.903Z,2.20
2019-01-27T22:05:35.215Z,1.67
2019-01-27T22:08:02.835Z,2.13
2019-01-27T22:10:30.155Z,2.07
2019-01-27T22:12:57.399Z,2.20
2019-01-27T22:15:24.651Z,2.17
2019-01-27T22:17:51.914Z,2.10
2019-01-27T22:20:19.452Z,2.90
2019-01-27T22:22:46.716Z,2.67
2019-01-27T22:25:14.173Z,2.20
2019-01-27T22:27:41.452Z,2.73
2019-01-27T22:30:10.673Z,1.80
2019-01-27T22:32:37.976Z,2.20
2019-01-27T22:35:05.607Z,2.40
2019-01-27T22:37:52.342Z,2.10
2019-01-27T22:40:19.595Z,2.20
2019-01-27T22:42:47.129Z,1.90
2019-01-27T22:45:14.633Z,2.87
2019-01-27T22:47:41.873Z,2.77
2019-01-27T22:50:10.571Z,3.80
2019-01-27T22:52:37.942Z,3.83
2019-01-27T22:55:05.456Z,3.40
2019-01-27T22:57:32.753Z,3.33
2019-01-27T23:02:54.535Z,2.83
2019-01-27T23:05:21.891Z,4.10
2019-01-27T23:07:49.179Z,2.97
2019-01-27T23:10:16.487Z,2.87
2019-01-27T23:12:43.820Z,2.97
2019-01-27T23:15:11.583Z,3.93
2019-01-27T23:17:38.874Z,2.80
2019-01-27T23:20:06.169Z,2.43
2019-01-27T23:22:33.545Z,3.37
2019-01-27T23:25:00.789Z,3.60
2019-01-27T23:27:28.129Z,4.43
2019-01-27T23:29:55.389Z,3.93
2019-01-27T23:32:22.743Z,3.30
2019-01-27T23:35:09.485Z,3.53
2019-01-27T23:37:37.107Z,3.57
2019-01-27T23:40:04.463Z,3.13
2019-01-27T23:42:31.698Z,3.43
2019-01-27T23:44:58.967Z,1.43
2019-01-27T23:47:26.203Z,1.93
2019-01-27T23:49:53.456Z,1.57
2019-01-27T23:52:20.989Z,2.53
2019-01-27T23:54:48.439Z,3.53
2019-01-27T23:57:15.680Z,3.73
2019-01-27T23:59:43.244Z,2.67
